| time (UTC) | temp C | wind direction | speed KPH | gust KPH | rain 1hr cm | rain 24hr cm | rain mn cm | humidity % | barometer mb |
| 20260906065216 | 24 | 132 | 3.2 | 4.8 | 0.00 | 0.00 | 0.00 | 89 | 1010.1 |
| 20260906064213 | 23 | 310 | 0.0 | 3.2 | 0.00 | 0.00 | 0.00 | 89 | 1009.8 |
| 20260906063209 | 23 | 267 | 0.0 | 1.6 | 0.00 | 0.00 | 0.00 | 89 | 1009.7 |
| 20260906062209 | 23 | 295 | 0.0 | 3.2 | 0.00 | 0.00 | 0.00 | 89 | 1009.9 |
| 20260906061207 | 23 | 56 | 0.0 | 1.6 | 0.00 | 0.00 | 0.00 | 89 | 1009.7 |
| 20260906060206 | 23 | 295 | 1.6 | 3.2 | 0.00 | 0.00 | 0.00 | 90 | 1009.6 |
| 20260906055202 | 23 | 29 | 0.0 | 3.2 | 0.00 | 0.00 | 0.00 | 89 | 1009.6 |
| 20260906054157 | 23 | 309 | 0.0 | 1.6 | 0.00 | 0.00 | 0.00 | 89 | 1009.5 |
| 20260906053155 | 23 | 197 | 0.0 | 1.6 | 0.00 | 0.00 | 0.00 | 89 | 1009.7 |
| 20260906052153 | 23 | 16 | 3.2 | 3.2 | 0.00 | 0.00 | 0.00 | 89 | 1009.8 |
| 20260906051149 | 23 | 240 | 0.0 | 1.6 | 0.00 | 0.00 | 0.00 | 89 | 1009.6 |
| 20260906050145 | 23 | 300 | 0.0 | 1.6 | 0.00 | 0.00 | 0.00 | 89 | 1009.6 |
| 20260906045145 | 23 | 280 | 0.0 | 3.2 | 0.00 | 0.00 | 0.00 | 89 | 1009.6 |
| 20260906044142 | 23 | 265 | 0.0 | 3.2 | 0.00 | 0.00 | 0.00 | 89 | 1010.0 |
| 20260906043139 | 23 | 306 | 0.0 | 1.6 | 0.00 | 0.00 | 0.00 | 89 | 1010.3 |
| 20260906042139 | 23 | 336 | 0.0 | 3.2 | 0.00 | 0.00 | 0.00 | 89 | 1010.0 |
| 20260906041135 | 23 | 314 | 0.0 | 1.6 | 0.00 | 0.00 | 0.00 | 89 | 1010.1 |
| 20260906040132 | 23 | 310 | 0.0 | 3.2 | 0.00 | 0.00 | 0.00 | 89 | 1010.1 |
| 20260906035129 | 24 | 302 | 0.0 | 1.6 | 0.00 | 0.00 | 0.00 | 89 | 1010.1 |
| 20260906034129 | 24 | 308 | 0.0 | 1.6 | 0.00 | 0.00 | 0.00 | 89 | 1010.0 |
| 20260906033126 | 24 | 294 | 0.0 | 1.6 | 0.00 | 0.00 | 0.00 | 89 | 1010.1 |
| 20260906032122 | 24 | 335 | 0.0 | 1.6 | 0.00 | 0.00 | 0.00 | 89 | 1010.5 |
| 20260906031119 | 24 | 47 | 3.2 | 3.2 | 0.00 | 0.00 | 0.00 | 89 | 1010.1 |
| 20260906030119 | 24 | 322 | 0.0 | 1.6 | 0.00 | 0.00 | 0.00 | 89 | 1010.5 |
| 20260906025117 | 25 | 137 | 0.0 | 1.6 | 0.00 | 0.00 | 0.00 | 89 | 1010.3 |
| 20260906024113 | 25 | 304 | 0.0 | 0.0 | 0.00 | 0.00 | 0.00 | 89 | 1009.9 |
| 20260906023109 | 25 | 305 | 0.0 | 3.2 | 0.00 | 0.00 | 0.00 | 89 | 1009.5 |
| 20260906022106 | 25 | 333 | 0.0 | 1.6 | 0.00 | 0.00 | 0.00 | 89 | 1009.5 |
| 20260906021100 | 25 | 314 | 1.6 | 3.2 | 0.00 | 0.00 | 0.00 | 89 | 1009.5 |
| 20260906020100 | 25 | 333 | 0.0 | 1.6 | 0.00 | 0.00 | 0.00 | 88 | 1009.6 |
| 20260906015059 | 25 | 323 | 0.0 | 3.2 | 0.00 | 0.00 | 0.00 | 89 | 1009.4 |
| 20260906014056 | 25 | 326 | 0.0 | 1.6 | 0.00 | 0.00 | 0.00 | 88 | 1009.3 |
| 20260906013052 | 25 | 279 | 0.0 | 1.6 | 0.00 | 0.00 | 0.00 | 88 | 1009.1 |
| 20260906012053 | 25 | 315 | 0.0 | 3.2 | 0.00 | 0.00 | 0.00 | 88 | 1008.9 |
| 20260906011048 | 25 | 308 | 1.6 | 3.2 | 0.00 | 0.00 | 0.00 | 88 | 1009.0 |
| 20260906010046 | 25 | 278 | 0.0 | 3.2 | 0.00 | 0.00 | 0.00 | 87 | 1009.0 |
| 20260906005044 | 25 | 326 | 0.0 | 1.6 | 0.00 | 0.00 | 0.00 | 87 | 1008.9 |
| 20260906004045 | 25 | 321 | 0.0 | 1.6 | 0.00 | 0.00 | 0.00 | 87 | 1008.8 |
| 20260906003042 | 25 | 336 | 1.6 | 1.6 | 0.00 | 0.00 | 0.00 | 87 | 1008.7 |
| 20260906002037 | 25 | 309 | 0.0 | 0.0 | 0.00 | 0.00 | 0.00 | 86 | 1008.9 |
| 20260906001032 | 25 | 312 | 0.0 | 3.2 | 0.00 | 0.00 | 0.00 | 86 | 1008.8 |
| 20260906000030 | 26 | 329 | 0.0 | 0.0 | 0.00 | 0.00 | 0.00 | 85 | 1008.8 |
| 20260905235024 | 26 | 312 | 0.0 | 3.2 | 0.00 | 0.00 | 0.00 | 84 | 1009.0 |
| 20260905234020 | 26 | 322 | 0.0 | 1.6 | 0.00 | 0.00 | 0.00 | 83 | 1009.0 |
| 20260905233021 | 26 | 327 | 0.0 | 1.6 | 0.00 | 0.00 | 0.00 | 83 | 1008.9 |
| 20260905232018 | 26 | 329 | 0.0 | 1.6 | 0.00 | 0.00 | 0.00 | 83 | 1009.0 |
| 20260905231015 | 26 | 311 | 0.0 | 1.6 | 0.00 | 0.00 | 0.00 | 82 | 1008.6 |
| 20260905230012 | 26 | 9 | 1.6 | 3.2 | 0.00 | 0.00 | 0.00 | 83 | 1008.6 |
| 20260905225008 | 27 | 315 | 0.0 | 3.2 | 0.00 | 0.00 | 0.00 | 84 | 1008.5 |
| 20260905224008 | 27 | 302 | 3.2 | 3.2 | 0.00 | 0.00 | 0.00 | 84 | 1008.5 |
| 20260905195921 | 38 | 227 | 3.2 | 6.4 | 0.00 | 0.00 | 0.00 | 38 | 1009.7 |
| 20260905194918 | 38 | 227 | 3.2 | 6.4 | 0.00 | 0.00 | 0.00 | 38 | 1009.7 |
| 20260905193917 | 38 | 43 | 3.2 | 4.8 | 0.00 | 0.00 | 0.00 | 33 | 1009.3 |
| 20260905192913 | 41 | 10 | 1.6 | 4.8 | 0.00 | 0.00 | 0.00 | 30 | 1009.1 |
| 20260905191908 | 40 | 244 | 4.8 | 6.4 | 0.00 | 0.00 | 0.00 | 32 | 1009.1 |
| 20260905190908 | 39 | 272 | 3.2 | 3.2 | 0.00 | 0.00 | 0.00 | 36 | 1009.0 |
| 20260905185904 | 40 | 174 | 3.2 | 3.2 | 0.00 | 0.00 | 0.00 | 33 | 1009.4 |
| 20260905184904 | 40 | 335 | 0.0 | 3.2 | 0.00 | 0.00 | 0.00 | 32 | 1009.8 |
| 20260905183903 | 40 | 198 | 3.2 | 4.8 | 0.00 | 0.00 | 0.00 | 31 | 1009.5 |
| 20260905182859 | 40 | 199 | 0.0 | 4.8 | 0.00 | 0.00 | 0.00 | 34 | 1009.6 |
| 20260905181854 | 39 | 330 | 1.6 | 4.8 | 0.00 | 0.00 | 0.00 | 34 | 1009.8 |
| 20260905180853 | 38 | 262 | 0.0 | 3.2 | 0.00 | 0.00 | 0.00 | 43 | 1010.1 |
| 20260905175849 | 37 | 253 | 3.2 | 3.2 | 0.00 | 0.00 | 0.00 | 44 | 1010.1 |
| 20260905174850 | 37 | 358 | 1.6 | 4.8 | 0.00 | 0.00 | 0.00 | 37 | 1010.0 |
| 20260905173847 | 38 | 26 | 1.6 | 4.8 | 0.00 | 0.00 | 0.00 | 37 | 1010.0 |
| 20260905172843 | 38 | 356 | 3.2 | 4.8 | 0.00 | 0.00 | 0.00 | 38 | 1010.4 |
| 20260905171843 | 40 | 7 | 3.2 | 4.8 | 0.00 | 0.00 | 0.00 | 35 | 1010.5 |
| 20260905170842 | 38 | 321 | 3.2 | 4.8 | 0.00 | 0.00 | 0.00 | 38 | 1010.7 |
| 20260905165837 | 38 | 4 | 3.2 | 4.8 | 0.00 | 0.00 | 0.00 | 38 | 1010.6 |
| 20260905164832 | 38 | 130 | 3.2 | 3.2 | 0.00 | 0.00 | 0.00 | 43 | 1010.5 |
| 20260905163828 | 37 | 349 | 3.2 | 3.2 | 0.00 | 0.00 | 0.00 | 43 | 1011.0 |
| 20260905162826 | 38 | 281 | 0.0 | 4.8 | 0.00 | 0.00 | 0.00 | 44 | 1011.2 |
| 20260905161826 | 37 | 67 | 3.2 | 4.8 | 0.00 | 0.00 | 0.00 | 45 | 1011.2 |
| 20260905160824 | 36 | 347 | 0.0 | 4.8 | 0.00 | 0.00 | 0.00 | 47 | 1011.1 |
| 20260905155819 | 36 | 226 | 1.6 | 3.2 | 0.00 | 0.00 | 0.00 | 47 | 1011.3 |
| 20260905154819 | 36 | 342 | 3.2 | 3.2 | 0.00 | 0.00 | 0.00 | 45 | 1011.3 |
| 20260905153815 | 36 | 253 | 0.0 | 4.8 | 0.00 | 0.00 | 0.00 | 49 | 1011.6 |
| 20260905152811 | 35 | 193 | 4.8 | 4.8 | 0.00 | 0.00 | 0.00 | 53 | 1011.5 |
| 20260905151812 | 35 | 305 | 3.2 | 3.2 | 0.00 | 0.00 | 0.00 | 55 | 1011.7 |
| 20260905150807 | 34 | 56 | 1.6 | 4.8 | 0.00 | 0.00 | 0.00 | 53 | 1011.7 |
| 20260905145804 | 35 | 130 | 0.0 | 3.2 | 0.00 | 0.00 | 0.00 | 55 | 1011.6 |
| 20260905144803 | 33 | 316 | 0.0 | 3.2 | 0.00 | 0.00 | 0.00 | 61 | 1011.9 |
| 20260905143803 | 33 | 305 | 0.0 | 3.2 | 0.00 | 0.00 | 0.00 | 59 | 1011.8 |
| 20260905142803 | 33 | 132 | 3.2 | 3.2 | 0.00 | 0.00 | 0.00 | 57 | 1011.9 |
| 20260905141759 | 33 | 304 | 1.6 | 3.2 | 0.00 | 0.00 | 0.00 | 60 | 1011.9 |
| 20260905140756 | 32 | 273 | 3.2 | 3.2 | 0.00 | 0.00 | 0.00 | 62 | 1011.9 |
| 20260905135755 | 32 | 164 | 0.0 | 3.2 | 0.00 | 0.00 | 0.00 | 61 | 1012.1 |
| 20260905134751 | 31 | 230 | 0.0 | 3.2 | 0.00 | 0.00 | 0.00 | 63 | 1012.3 |
| 20260905133751 | 31 | 112 | 3.2 | 4.8 | 0.00 | 0.00 | 0.00 | 64 | 1012.0 |
| 20260905132745 | 30 | 129 | 0.0 | 1.6 | 0.00 | 0.00 | 0.00 | 68 | 1012.2 |
| 20260905131741 | 30 | 307 | 1.6 | 3.2 | 0.00 | 0.00 | 0.00 | 73 | 1012.3 |
| 20260905130737 | 28 | 301 | 0.0 | 3.2 | 0.00 | 0.00 | 0.00 | 76 | 1012.5 |
| 20260905125732 | 26 | 55 | 0.0 | 1.6 | 0.00 | 0.00 | 0.00 | 84 | 1012.4 |
| 20260905124729 | 26 | 46 | 1.6 | 1.6 | 0.00 | 0.00 | 0.00 | 85 | 1012.2 |
| 20260905123725 | 25 | 130 | 0.0 | 1.6 | 0.00 | 0.00 | 0.00 | 86 | 1012.0 |
| 20260905122722 | 25 | 265 | 0.0 | 1.6 | 0.00 | 0.00 | 0.00 | 87 | 1012.3 |
| 20260905121717 | 25 | 253 | 0.0 | 1.6 | 0.00 | 0.00 | 0.00 | 87 | 1012.2 |
| 20260905120713 | 24 | 72 | 0.0 | 3.2 | 0.00 | 0.00 | 0.00 | 87 | 1011.9 |
| 20260905115707 | 24 | 9 | 0.0 | 3.2 | 0.00 | 0.00 | 0.00 | 88 | 1012.0 |
| 20260905114702 | 24 | 335 | 0.0 | 1.6 | 0.00 | 0.00 | 0.00 | 88 | 1012.0 |
| 20260905113700 | 24 | 38 | 0.0 | 1.6 | 0.00 | 0.00 | 0.00 | 88 | 1011.8 |
| 20260905112656 | 24 | 329 | 0.0 | 1.6 | 0.00 | 0.00 | 0.00 | 88 | 1011.7 |
| 20260905111651 | 24 | 269 | 0.0 | 3.2 | 0.00 | 0.00 | 0.00 | 88 | 1011.3 |
| 20260905110650 | 24 | 322 | 0.0 | 1.6 | 0.00 | 0.00 | 0.00 | 88 | 1011.4 |
| 20260905105646 | 24 | 261 | 0.0 | 1.6 | 0.00 | 0.00 | 0.00 | 88 | 1011.3 |
| 20260905104646 | 24 | 358 | 1.6 | 3.2 | 0.00 | 0.00 | 0.00 | 88 | 1011.0 |
| 20260905103643 | 24 | 109 | 0.0 | 3.2 | 0.00 | 0.00 | 0.00 | 88 | 1011.0 |
| 20260905102640 | 24 | 150 | 0.0 | 3.2 | 0.00 | 0.00 | 0.00 | 87 | 1011.1 |
| 20260905101641 | 24 | 311 | 0.0 | 1.6 | 0.00 | 0.00 | 0.00 | 87 | 1011.1 |
| 20260905100636 | 24 | 34 | 0.0 | 1.6 | 0.00 | 0.00 | 0.00 | 87 | 1011.2 |
| 20260905095630 | 24 | 224 | 0.0 | 1.6 | 0.00 | 0.00 | 0.00 | 87 | 1011.2 |
| 20260905094627 | 25 | 269 | 0.0 | 1.6 | 0.00 | 0.00 | 0.00 | 87 | 1011.2 |
| 20260905093626 | 25 | 301 | 1.6 | 3.2 | 0.00 | 0.00 | 0.00 | 87 | 1010.9 |
| 20260905092622 | 25 | 116 | 0.0 | 3.2 | 0.00 | 0.00 | 0.00 | 87 | 1010.9 |
| 20260905091617 | 25 | 73 | 0.0 | 3.2 | 0.00 | 0.00 | 0.00 | 87 | 1010.7 |
| 20260905090618 | 25 | 14 | 0.0 | 1.6 | 0.00 | 0.00 | 0.00 | 87 | 1010.7 |
| 20260905085618 | 25 | 282 | 0.0 | 1.6 | 0.00 | 0.00 | 0.00 | 87 | 1010.6 |
| 20260905084613 | 25 | 351 | 0.0 | 3.2 | 0.00 | 0.00 | 0.00 | 87 | 1010.8 |
| 20260905083608 | 25 | 306 | 0.0 | 1.6 | 0.00 | 0.00 | 0.00 | 87 | 1010.8 |
| 20260905082606 | 25 | 264 | 0.0 | 3.2 | 0.00 | 0.00 | 0.00 | 87 | 1010.8 |
| 20260905081601 | 25 | 12 | 1.6 | 3.2 | 0.00 | 0.00 | 0.00 | 87 | 1010.5 |
| 20260905080556 | 25 | 303 | 0.0 | 3.2 | 0.00 | 0.00 | 0.00 | 86 | 1010.7 |
| 20260905075550 | 25 | 186 | 0.0 | 3.2 | 0.00 | 0.00 | 0.00 | 86 | 1010.6 |
| 20260905074549 | 25 | 279 | 1.6 | 1.6 | 0.00 | 0.00 | 0.00 | 86 | 1010.6 |
| 20260905073547 | 25 | 0 | 0.0 | 1.6 | 0.00 | 0.00 | 0.00 | 85 | 1010.7 |
| 20260905072547 | 25 | 223 | 1.6 | 1.6 | 0.00 | 0.00 | 0.00 | 85 | 1010.8 |
| 20260905071545 | 25 | 57 | 0.0 | 1.6 | 0.00 | 0.00 | 0.00 | 84 | 1010.5 |
| 20260905070541 | 25 | 288 | 1.6 | 3.2 | 0.00 | 0.00 | 0.00 | 84 | 1010.7 |